Zim Texas — V7VE3 — position and weather

sailwx.info

Track history (hours):
 
Tides and Currents Weather Stations Pressure Air Temp Water Temp Dewpoint Dewpoint Depression Visibility Wind Speed Wind Dir Waves Ship Positions

Zim Texas

Last reported at 2017-Oct-17 03:13 UTC. Time now 2017-Oct-17 03:59 UTC.
Position N 37°57' E 023°36'.

Length 261 m; draft 11.4 m.

Type: Ship (hazmat cat A). MMSI: 538004099.

Date/timePositionNaut miles runAvg speedWind from/ knotsBaromVisibWave heightAir tempDewpointWater temp
2017-Oct-17 03:13N 37°57' E 023°36'0 0.0
2017-Oct-17 02:58N 37°57' E 023°36'0 0.0
2017-Oct-17 02:28N 37°57' E 023°36'0 0.0
2017-Oct-17 01:58N 37°57' E 023°36'0 0.0
2017-Oct-17 01:28N 37°57' E 023°36'0 0.0
2017-Oct-17 00:58N 37°57' E 023°36'0 0.0
2017-Oct-17 00:28N 37°57' E 023°36'0 0.0
2017-Oct-16 23:58N 37°57' E 023°36'0 0.0
2017-Oct-16 23:28N 37°57' E 023°36'0 0.0
2017-Oct-16 22:58N 37°57' E 023°36'0 0.0
2017-Oct-16 22:28N 37°57' E 023°36'0 0.0
2017-Oct-16 21:58N 37°57' E 023°36'0 0.0
2017-Oct-16 21:28N 37°57' E 023°36'0 0.0
2017-Oct-16 20:58N 37°57' E 023°36'0 0.0
2017-Oct-16 20:28N 37°57' E 023°36'0 0.0
2017-Oct-16 19:58N 37°57' E 023°36'0 0.0
2017-Oct-16 19:28N 37°57' E 023°36'0 0.0
2017-Oct-16 18:58N 37°57' E 023°36'0 0.0
2017-Oct-16 18:28N 37°57' E 023°36'0 0.0
2017-Oct-16 17:58N 37°57' E 023°36'0 0.0
2017-Oct-16 17:28N 37°57' E 023°36'0 0.0
2017-Oct-16 16:58N 37°57' E 023°36'0 0.0
2017-Oct-16 16:28N 37°57' E 023°36'0 0.0
2017-Oct-16 15:58N 37°57' E 023°36'0 0.0
2017-Oct-16 15:25N 37°57' E 023°36'0 0.0
2017-Oct-16 14:58N 37°57' E 023°36'0 0.0
2017-Oct-16 14:28N 37°57' E 023°36'0 0.0
2017-Oct-16 13:28N 37°57' E 023°36'0 0.0
2017-Oct-16 12:58N 37°57' E 023°36'0 0.0
2017-Oct-16 12:19N 37°57' E 023°36'0 0.0
2017-Oct-16 11:58N 37°57' E 023°36'0 0.0
2017-Oct-16 11:28N 37°57' E 023°36'0 0.0
2017-Oct-16 10:58N 37°57' E 023°36'0 0.0
2017-Oct-16 10:28N 37°57' E 023°36'0 0.0
2017-Oct-16 10:00N 37°57' E 023°36'1 2.1
2017-Oct-16 09:30N 37°56' E 023°36'3 5.2
2017-Oct-16 09:00N 37°54' E 023°38'714.2
2017-Oct-16 08:30N 37°47' E 023°42'815.4
2017-Oct-16 08:00N 37°41' E 023°46'611.1
2017-Oct-16 07:30N 37°37' E 023°51'13 8.1
2017-Oct-16 05:55N 37°36' E 024°07'12 8.7
2017-Oct-16 04:32N 37°44' E 024°18'0 8.7
2017-Oct-16 04:30N 37°44' E 024°19'77 2.2
2017-Oct-14 18:27N 37°34' E 025°54'28216.4
2017-Oct-14 01:14N 34°40' E 030°29'417.4
2017-Oct-14 01:01N 34°38' E 030°33'  
2017-Oct-11 20:28N 32°52' E 034°58'3 7.4
2017-Oct-11 20:00N 32°53' E 034°54'510.0
2017-Oct-11 19:30N 32°49' E 034°49'816.1
2017-Oct-11 19:01N 32°42' E 034°46'816.3
2017-Oct-11 18:31N 32°34' E 034°44'816.1
2017-Oct-11 18:01N 32°26' E 034°41'816.2
2017-Oct-11 17:31N 32°18' E 034°38'816.0
2017-Oct-11 17:01N 32°11' E 034°35'20 0.7
2017-Oct-10 12:29N 31°51' E 034°38'  
2017-Oct-08 06:45N 35°52' E 030°23'  
Track history (hours):
 
Tides and Currents Weather Stations Pressure Air Temp Water Temp Dewpoint Dewpoint Depression Visibility Wind Speed Wind Dir Waves Ship Positions

Zim Texas

Last reported at 2017-Oct-17 03:13 UTC. Time now 2017-Oct-17 03:59 UTC.
Position N 37°57' E 023°36'.

Length 261 m; draft 11.4 m.

Type: Ship (hazmat cat A). MMSI: 538004099.

Date/timePositionNaut miles runAvg speedWind from/ knotsBaromVisibWave heightAir tempDewpointWater temp
2017-Oct-17 03:13N 37°57' E 023°36'0 0.0
2017-Oct-17 02:58N 37°57' E 023°36'0 0.0
2017-Oct-17 02:28N 37°57' E 023°36'0 0.0
2017-Oct-17 01:58N 37°57' E 023°36'0 0.0
2017-Oct-17 01:28N 37°57' E 023°36'0 0.0
2017-Oct-17 00:58N 37°57' E 023°36'0 0.0
2017-Oct-17 00:28N 37°57' E 023°36'0 0.0
2017-Oct-16 23:58N 37°57' E 023°36'0 0.0
2017-Oct-16 23:28N 37°57' E 023°36'0 0.0
2017-Oct-16 22:58N 37°57' E 023°36'0 0.0
2017-Oct-16 22:28N 37°57' E 023°36'0 0.0
2017-Oct-16 21:58N 37°57' E 023°36'0 0.0
2017-Oct-16 21:28N 37°57' E 023°36'0 0.0
2017-Oct-16 20:58N 37°57' E 023°36'0 0.0
2017-Oct-16 20:28N 37°57' E 023°36'0 0.0
2017-Oct-16 19:58N 37°57' E 023°36'0 0.0
2017-Oct-16 19:28N 37°57' E 023°36'0 0.0
2017-Oct-16 18:58N 37°57' E 023°36'0 0.0
2017-Oct-16 18:28N 37°57' E 023°36'0 0.0
2017-Oct-16 17:58N 37°57' E 023°36'0 0.0
2017-Oct-16 17:28N 37°57' E 023°36'0 0.0
2017-Oct-16 16:58N 37°57' E 023°36'0 0.0
2017-Oct-16 16:28N 37°57' E 023°36'0 0.0
2017-Oct-16 15:58N 37°57' E 023°36'0 0.0
2017-Oct-16 15:25N 37°57' E 023°36'0 0.0
2017-Oct-16 14:58N 37°57' E 023°36'0 0.0
2017-Oct-16 14:28N 37°57' E 023°36'0 0.0
2017-Oct-16 13:28N 37°57' E 023°36'0 0.0
2017-Oct-16 12:58N 37°57' E 023°36'0 0.0
2017-Oct-16 12:19N 37°57' E 023°36'0 0.0
2017-Oct-16 11:58N 37°57' E 023°36'0 0.0
2017-Oct-16 11:28N 37°57' E 023°36'0 0.0
2017-Oct-16 10:58N 37°57' E 023°36'0 0.0
2017-Oct-16 10:28N 37°57' E 023°36'0 0.0
2017-Oct-16 10:00N 37°57' E 023°36'1 2.1
2017-Oct-16 09:30N 37°56' E 023°36'3 5.2
2017-Oct-16 09:00N 37°54' E 023°38'714.2
2017-Oct-16 08:30N 37°47' E 023°42'815.4
2017-Oct-16 08:00N 37°41' E 023°46'611.1
2017-Oct-16 07:30N 37°37' E 023°51'13 8.1
2017-Oct-16 05:55N 37°36' E 024°07'12 8.7
2017-Oct-16 04:32N 37°44' E 024°18'0 8.7
2017-Oct-16 04:30N 37°44' E 024°19'77 2.2
2017-Oct-14 18:27N 37°34' E 025°54'28216.4
2017-Oct-14 01:14N 34°40' E 030°29'417.4
2017-Oct-14 01:01N 34°38' E 030°33'  
2017-Oct-11 20:28N 32°52' E 034°58'3 7.4
2017-Oct-11 20:00N 32°53' E 034°54'510.0
2017-Oct-11 19:30N 32°49' E 034°49'816.1
2017-Oct-11 19:01N 32°42' E 034°46'816.3
2017-Oct-11 18:31N 32°34' E 034°44'816.1
2017-Oct-11 18:01N 32°26' E 034°41'816.2
2017-Oct-11 17:31N 32°18' E 034°38'816.0
2017-Oct-11 17:01N 32°11' E 034°35'20 0.7
2017-Oct-10 12:29N 31°51' E 034°38'  
2017-Oct-08 06:45N 35°52' E 030°23'  

Dump ship's entire track history